^^
Meteo Knjazevac Station Historical Data
Daily Summary for March 23, 2021 Units:  English    Metric   Both
Daily Weekly Monthly Yearly Custom
  High: Low: Average:
Temperature: 19.6 °F 16.3 °F 17.8 °F
Dew Point: 17.4 °F 13.9 °F 15.5 °F
Humidity: 93% 89% 90%
Wind Speed: 2mph 0mph 1mph
Wind Gust: 6mph - -
Wind- - WNW
Pressure: 30.40 in 30.38 in -
Precipitation: 0.00 in    
Historical Graphs
 
 
Tabular Data for March 23, 2021
Time Temperature Dew Point Pressure Wind Wind Speed Wind Gust Humidity Rainfall Rate (Hourly) solar Conditions
00:00 19.6 °F 16.9 °F 30.40 in WNW 1 mph 2 mph 89% 0.00 in 0 W/m2
00:30 18.7 °F 16 °F 30.39 in WNW 1 mph 2 mph 89% 0.00 in 0 W/m2
00:40 18.5 °F 15.8 °F 30.39 in WNW 1 mph 2 mph 89% 0.00 in 0 W/m2
00:50 18.3 °F 15.9 °F 30.39 in WNW 1 mph 3 mph 90% 0.00 in 0 W/m2
01:00 18.5 °F 16.3 °F 30.39 in NNW 1 mph 2 mph 91% 0.00 in 0 W/m2
01:10 18.5 °F 16.3 °F 30.39 in Calm   3 mph 91% 0.00 in 0 W/m2
01:20 19 °F 17.4 °F 30.38 in SSE 1 mph 5 mph 93% 0.00 in 0 W/m2
01:30 18.7 °F 16.2 °F 30.39 in NNW 1 mph 2 mph 90% 0.00 in 0 W/m2
01:40 18.7 °F 16.5 °F 30.39 in Calm   2 mph 91% 0.00 in 0 W/m2
01:50 18.1 °F 15.7 °F 30.39 in Calm   2 mph 90% 0.00 in 0 W/m2
02:00 17.6 °F 14.9 °F 30.39 in West 2 mph 3 mph 89% 0.00 in 0 W/m2
02:10 17.2 °F 14.6 °F 30.39 in WNW 2 mph 3 mph 89% 0.00 in 0 W/m2
02:20 17.1 °F 14.6 °F 30.39 in NW 1 mph 4 mph 90% 0.00 in 0 W/m2
02:30 17.1 °F 14.9 °F 30.39 in NNW 1 mph 3 mph 91% 0.00 in 0 W/m2
02:40 17.2 °F 15.1 °F 30.39 in NW 1 mph 5 mph 91% 0.00 in 0 W/m2
02:50 17.1 °F 14.9 °F 30.38 in Calm   4 mph 91% 0.00 in 0 W/m2
03:00 17.1 °F 14.9 °F 30.38 in WNW 2 mph 4 mph 91% 0.00 in 0 W/m2
03:10 16.7 °F 14.3 °F 30.38 in Calm   3 mph 90% 0.00 in 0 W/m2
03:20 16.3 °F 13.9 °F 30.38 in NW 2 mph 3 mph 90% 0.00 in 0 W/m2
03:30 16.7 °F 14.5 °F 30.38 in NNW 1 mph 6 mph 91% 0.00 in 0 W/m2
Knjazevac, Serbia
Compliments of Weather Underground - 2 mb